Ibra, Oman
Current Conditions -  °F | °C
As of 11:50 PM on Wednesday 17 Dec 2014 (Local Time) from OOMS Reporting Station
Clear Clear  
Wind Chill: 70°   Ceiling: Unl
Heat Index: 70°   Visibility: 6mi
Dew Point: 61°   Wind: 5mph
Humidity: 73%   Direction: 200°SSW
Pressure: 30.09"   Gusts: NA
Location:  22.72°N, 58.53°E
Report Text: OOMS 171950Z 20004KT 170V250 CAVOK 21/16 Q1019 NOSIG
Loading
Personal Weather Stations






























Interactive Weather Map New forecast layout! Learn more

10-Day Weather Forecast

Advertisements
Track Severe Weather on mobile